createdAt,value
2019-05-16T00:01:21.414Z,9.5
2019-05-16T00:03:21.396Z,9.44
2019-05-16T00:05:21.401Z,9.44
2019-05-16T00:07:21.412Z,9.38
2019-05-16T00:09:21.408Z,9.38
2019-05-16T00:09:38.435Z,9.38
2019-05-16T00:11:21.420Z,9.38
2019-05-16T00:13:21.404Z,9.38
2019-05-16T00:15:21.494Z,9.31
2019-05-16T00:17:21.435Z,9.31
2019-05-16T00:19:21.418Z,9.19
2019-05-16T00:21:21.450Z,9.13
2019-05-16T00:23:22.328Z,9.13
2019-05-16T00:24:38.447Z,9.19
2019-05-16T00:25:21.498Z,9.19
2019-05-16T00:27:21.510Z,9.13
2019-05-16T00:29:21.398Z,9.06
2019-05-16T00:31:22.659Z,9.19
2019-05-16T00:33:21.500Z,9.13
2019-05-16T00:35:21.418Z,9.13
2019-05-16T00:37:23.084Z,9.06
2019-05-16T00:39:21.413Z,9.06
2019-05-16T00:39:38.777Z,9.06
2019-05-16T00:41:21.422Z,9
2019-05-16T00:43:21.425Z,8.94
2019-05-16T00:45:21.419Z,8.94
2019-05-16T00:47:21.435Z,9
2019-05-16T00:49:21.429Z,8.94
2019-05-16T00:51:21.422Z,8.81
2019-05-16T00:53:21.434Z,8.69
2019-05-16T00:54:38.527Z,8.63
2019-05-16T00:55:21.409Z,8.56
2019-05-16T00:57:21.411Z,8.5
2019-05-16T00:59:21.442Z,8.5
2019-05-16T01:01:21.429Z,8.44
2019-05-16T01:03:21.501Z,8.38
2019-05-16T01:05:21.429Z,8.31
2019-05-16T01:07:21.480Z,8.25
2019-05-16T01:09:21.418Z,8.25
2019-05-16T01:09:38.700Z,8.25
2019-05-16T01:11:21.499Z,8.25
2019-05-16T01:13:22.258Z,8.31
2019-05-16T01:15:21.370Z,8.31
2019-05-16T01:17:21.476Z,8.19
2019-05-16T01:19:21.454Z,8.19
2019-05-16T01:21:21.369Z,8.13
2019-05-16T01:23:21.364Z,8.13
2019-05-16T01:24:41.381Z,8.06
2019-05-16T01:25:21.402Z,8
2019-05-16T01:27:21.379Z,8.06
2019-05-16T01:29:21.427Z,8
2019-05-16T01:31:21.476Z,8
2019-05-16T01:33:21.419Z,8
2019-05-16T01:35:21.420Z,8
2019-05-16T01:37:21.395Z,7.94
2019-05-16T01:39:21.494Z,8.06
2019-05-16T01:39:38.419Z,8.06
2019-05-16T01:41:21.416Z,7.94
2019-05-16T01:43:21.402Z,7.94
2019-05-16T01:45:21.422Z,7.88
2019-05-16T01:47:21.416Z,7.81
2019-05-16T01:49:21.428Z,7.69
2019-05-16T01:51:21.421Z,7.56
2019-05-16T01:53:21.411Z,7.56
2019-05-16T01:54:38.908Z,7.5
2019-05-16T01:55:21.419Z,7.5
2019-05-16T01:57:21.415Z,7.44
2019-05-16T01:59:21.408Z,7.44
2019-05-16T02:01:21.540Z,7.44
2019-05-16T02:03:21.356Z,7.56
2019-05-16T02:05:21.429Z,7.56
2019-05-16T02:07:21.416Z,7.56
2019-05-16T02:09:21.408Z,7.44
2019-05-16T02:09:38.530Z,7.44
2019-05-16T02:11:21.471Z,7.31
2019-05-16T02:13:23.277Z,7.38
2019-05-16T02:15:21.397Z,7.31
2019-05-16T02:17:21.445Z,7.38
2019-05-16T02:19:21.475Z,7.38
2019-05-16T02:21:21.458Z,7.31
2019-05-16T02:23:21.481Z,7.31
2019-05-16T02:24:38.899Z,7.31
2019-05-16T02:25:21.470Z,7.31
2019-05-16T02:27:21.465Z,7.38
2019-05-16T02:29:21.486Z,7.31
2019-05-16T02:31:22.697Z,7.31
2019-05-16T02:33:21.724Z,7.31
2019-05-16T02:35:21.414Z,7.38
2019-05-16T02:37:28.940Z,7.38
2019-05-16T02:39:21.427Z,7.44
2019-05-16T02:39:40.897Z,7.5
2019-05-16T02:41:21.824Z,7.5
2019-05-16T02:43:25.926Z,7.5
2019-05-16T02:45:24.319Z,7.56
2019-05-16T02:47:21.467Z,7.56
2019-05-16T02:49:21.709Z,7.63
2019-05-16T02:51:21.582Z,7.5
2019-05-16T02:53:22.194Z,7.5
2019-05-16T02:54:41.125Z,7.5
2019-05-16T02:55:21.770Z,7.5
2019-05-16T02:57:21.497Z,7.56
2019-05-16T02:59:21.319Z,7.5
2019-05-16T03:01:21.744Z,7.5
2019-05-16T03:03:21.728Z,7.56
2019-05-16T03:05:21.405Z,7.56
2019-05-16T03:07:36.003Z,7.56
2019-05-16T03:09:22.314Z,7.63
2019-05-16T03:09:41.014Z,7.63
2019-05-16T03:11:21.552Z,7.69
2019-05-16T03:13:22.080Z,7.69
2019-05-16T03:15:21.888Z,7.63
2019-05-16T03:17:21.661Z,7.69
2019-05-16T03:19:21.701Z,7.69
2019-05-16T03:21:21.722Z,7.63
2019-05-16T03:23:21.883Z,7.63
2019-05-16T03:24:41.717Z,7.63
2019-05-16T03:25:22.135Z,7.63
2019-05-16T03:27:21.649Z,7.63
2019-05-16T03:29:21.907Z,7.63
2019-05-16T03:31:24.313Z,7.63
2019-05-16T03:33:30.394Z,7.63
2019-05-16T03:35:24.413Z,7.63
2019-05-16T03:37:24.765Z,7.63
2019-05-16T03:39:21.493Z,7.56
2019-05-16T03:39:40.656Z,7.63
2019-05-16T03:41:21.763Z,7.63
2019-05-16T03:43:22.010Z,7.63
2019-05-16T03:45:21.489Z,7.56
2019-05-16T03:47:22.023Z,7.5
2019-05-16T03:49:21.582Z,7.63
2019-05-16T03:51:21.947Z,7.63
2019-05-16T03:53:21.572Z,7.56
2019-05-16T03:54:41.740Z,7.63
2019-05-16T03:55:22.385Z,7.56
2019-05-16T03:57:21.529Z,7.56
2019-05-16T03:59:21.603Z,7.63
2019-05-16T04:01:21.491Z,7.63
2019-05-16T04:03:21.677Z,7.63
2019-05-16T04:05:21.359Z,7.63
2019-05-16T04:07:21.658Z,7.63
2019-05-16T04:09:21.393Z,7.69
2019-05-16T04:09:41.096Z,7.69
2019-05-16T04:11:23.145Z,7.69
2019-05-16T04:13:21.829Z,7.69
2019-05-16T04:15:21.615Z,7.75
2019-05-16T04:17:21.580Z,7.75
2019-05-16T04:19:21.442Z,7.75
2019-05-16T04:21:21.973Z,7.75
2019-05-16T04:23:21.418Z,7.75
2019-05-16T04:24:38.457Z,7.75
2019-05-16T04:25:21.844Z,7.75
2019-05-16T04:27:21.702Z,7.81
2019-05-16T04:29:21.499Z,7.81
2019-05-16T04:31:22.160Z,7.88
2019-05-16T04:33:22.209Z,7.88
2019-05-16T04:35:22.445Z,7.88
2019-05-16T04:37:22.715Z,7.81
2019-05-16T04:39:21.442Z,7.88
2019-05-16T04:39:41.353Z,7.88
2019-05-16T04:41:21.565Z,7.94
2019-05-16T04:43:22.280Z,7.94
2019-05-16T04:45:21.452Z,8
2019-05-16T04:47:21.458Z,8.06
2019-05-16T04:49:21.497Z,8.06
2019-05-16T04:51:22.063Z,8.06
2019-05-16T04:53:21.688Z,8.13
2019-05-16T04:54:41.719Z,8.06
2019-05-16T04:55:21.455Z,8.06
2019-05-16T04:57:21.526Z,8.19
2019-05-16T04:59:21.566Z,8.13
2019-05-16T05:01:23.244Z,8.19
2019-05-16T05:03:21.419Z,8.25
2019-05-16T05:05:21.755Z,8.19
2019-05-16T05:07:21.421Z,8.25
2019-05-16T05:09:21.375Z,8.19
2019-05-16T05:09:40.794Z,8.19
2019-05-16T05:11:21.740Z,8.31
2019-05-16T05:13:22.365Z,8.31
2019-05-16T05:15:21.523Z,8.31
2019-05-16T05:17:21.422Z,8.44
2019-05-16T05:19:21.486Z,8.5
2019-05-16T05:21:21.427Z,8.56
2019-05-16T05:23:21.454Z,8.63
2019-05-16T05:24:40.500Z,8.75
2019-05-16T05:25:21.513Z,8.75
2019-05-16T05:27:21.417Z,8.81
2019-05-16T05:29:21.485Z,9
2019-05-16T05:31:24.547Z,9.06
2019-05-16T05:33:21.560Z,9.19
2019-05-16T05:35:21.372Z,9.31
2019-05-16T05:37:21.458Z,9.5
2019-05-16T05:39:21.367Z,9.56
2019-05-16T05:39:39.667Z,9.56
2019-05-16T05:41:21.471Z,9.63
2019-05-16T05:43:21.912Z,9.63
2019-05-16T05:45:21.523Z,9.81
2019-05-16T05:47:22.325Z,9.81
2019-05-16T05:49:21.543Z,9.75
2019-05-16T05:51:21.378Z,9.75
2019-05-16T05:53:21.534Z,9.75
2019-05-16T05:54:40.661Z,9.75
2019-05-16T05:55:21.421Z,9.69
2019-05-16T05:57:21.420Z,9.69
2019-05-16T05:59:21.587Z,9.69
2019-05-16T06:01:22.328Z,9.63
2019-05-16T06:03:22.637Z,9.63
2019-05-16T06:05:21.513Z,9.69
2019-05-16T06:07:21.435Z,9.63
2019-05-16T06:09:28.189Z,9.56
2019-05-16T06:09:50.377Z,9.56
2019-05-16T06:11:21.436Z,9.56
2019-05-16T06:13:21.432Z,9.63
2019-05-16T06:15:23.784Z,9.63
2019-05-16T06:17:22.743Z,9.75
2019-05-16T06:19:21.294Z,9.75
2019-05-16T06:21:21.373Z,9.75
2019-05-16T06:23:21.426Z,9.88
2019-05-16T06:24:39.872Z,9.94
2019-05-16T06:25:22.567Z,9.94
2019-05-16T06:27:21.443Z,9.94
2019-05-16T06:29:21.372Z,9.94
2019-05-16T06:31:22.263Z,9.94
2019-05-16T06:33:21.432Z,9.88
2019-05-16T06:35:24.066Z,9.88
2019-05-16T06:37:21.499Z,9.88
2019-05-16T06:39:21.440Z,9.88
2019-05-16T06:39:41.732Z,9.94
2019-05-16T06:41:21.414Z,10
2019-05-16T06:43:21.424Z,10.06
2019-05-16T06:45:21.421Z,10.13
2019-05-16T06:47:23.058Z,10.19
2019-05-16T06:49:21.435Z,10.25
2019-05-16T06:51:21.494Z,10.31
2019-05-16T06:53:21.488Z,10.38
2019-05-16T06:54:40.540Z,10.44
2019-05-16T06:55:21.525Z,10.5
2019-05-16T06:57:21.348Z,10.44
2019-05-16T06:59:21.510Z,10.56
2019-05-16T07:01:21.435Z,10.56
2019-05-16T07:03:21.424Z,10.5
2019-05-16T07:05:21.507Z,10.56
2019-05-16T07:07:21.418Z,10.69
2019-05-16T07:09:21.430Z,10.69
2019-05-16T07:09:40.539Z,10.69
2019-05-16T07:11:21.429Z,10.56
2019-05-16T07:13:21.448Z,10.56
2019-05-16T07:15:22.323Z,10.63
2019-05-16T07:17:21.424Z,10.69
2019-05-16T07:19:21.425Z,10.81
2019-05-16T07:21:21.435Z,10.88
2019-05-16T07:23:21.481Z,10.88
2019-05-16T07:24:39.925Z,10.88
2019-05-16T07:25:21.387Z,10.81
2019-05-16T07:27:21.928Z,10.88
2019-05-16T07:29:22.292Z,10.94
2019-05-16T07:31:22.483Z,11
2019-05-16T07:33:21.554Z,11
2019-05-16T07:35:21.451Z,11.06
2019-05-16T07:37:21.370Z,11
2019-05-16T07:39:21.396Z,11
2019-05-16T07:39:41.125Z,11
2019-05-16T07:41:21.471Z,11
2019-05-16T07:43:21.404Z,11.06
2019-05-16T07:45:21.425Z,11.06
2019-05-16T07:47:21.420Z,11.06
2019-05-16T07:49:21.388Z,11.06
2019-05-16T07:51:21.615Z,11.13
2019-05-16T07:53:21.716Z,11.19
2019-05-16T07:54:40.330Z,11.31
2019-05-16T07:55:21.490Z,11.38
2019-05-16T07:57:22.883Z,11.44
2019-05-16T07:59:21.503Z,11.38
2019-05-16T08:01:21.411Z,11.44
2019-05-16T08:03:21.514Z,11.56
2019-05-16T08:05:21.473Z,11.63
2019-05-16T08:07:21.478Z,11.56
2019-05-16T08:09:22.291Z,11.56
2019-05-16T08:09:39.704Z,11.56
2019-05-16T08:11:23.575Z,11.63
2019-05-16T08:13:21.496Z,11.69
2019-05-16T08:15:21.605Z,11.75
2019-05-16T08:17:21.858Z,11.75
2019-05-16T08:19:25.114Z,11.88
2019-05-16T08:21:21.435Z,11.88
2019-05-16T08:23:22.507Z,11.81
2019-05-16T08:24:40.178Z,11.94
2019-05-16T08:25:24.218Z,11.94
2019-05-16T08:27:21.384Z,11.94
2019-05-16T08:29:22.092Z,11.94
2019-05-16T08:31:22.285Z,12.06
2019-05-16T08:33:21.975Z,12.06
2019-05-16T08:35:21.374Z,12
2019-05-16T08:37:36.731Z,12.19
2019-05-16T08:39:21.591Z,12.25
2019-05-16T08:39:41.153Z,12.25
2019-05-16T08:41:22.194Z,12.25
2019-05-16T08:43:21.812Z,12.25
2019-05-16T08:45:23.583Z,12.19
2019-05-16T08:47:21.503Z,12.31
2019-05-16T08:49:22.231Z,12.38
2019-05-16T08:51:22.171Z,12.56
2019-05-16T08:53:21.956Z,12.63
2019-05-16T08:54:42.907Z,12.56
2019-05-16T08:55:21.819Z,12.5
2019-05-16T08:57:27.319Z,12.44
2019-05-16T08:59:21.729Z,12.5
2019-05-16T09:01:21.789Z,12.69
2019-05-16T09:03:22.395Z,12.56
2019-05-16T09:05:22.521Z,12.75
2019-05-16T09:07:22.573Z,12.88
2019-05-16T09:09:36.294Z,13.06
2019-05-16T09:09:43.910Z,13.13
2019-05-16T09:11:38.868Z,13.25
2019-05-16T09:13:21.467Z,13.5
2019-05-16T09:15:21.443Z,13.81
2019-05-16T09:17:21.430Z,14.06
2019-05-16T09:19:21.522Z,14.13
2019-05-16T09:21:21.454Z,14.19
2019-05-16T09:23:21.449Z,13.94
2019-05-16T09:24:38.458Z,14
2019-05-16T09:25:21.438Z,13.94
2019-05-16T09:27:21.415Z,13.94
2019-05-16T09:29:22.371Z,14.13
2019-05-16T09:31:22.315Z,14.06
2019-05-16T09:33:21.422Z,13.88
2019-05-16T09:35:21.578Z,13.75
2019-05-16T09:37:21.387Z,13.81
2019-05-16T09:39:21.384Z,14
2019-05-16T09:39:38.455Z,13.94
2019-05-16T09:41:21.443Z,14.06
2019-05-16T09:43:21.401Z,14.06
2019-05-16T09:45:21.404Z,14
2019-05-16T09:47:21.389Z,13.88
2019-05-16T09:49:24.817Z,14
2019-05-16T09:51:21.533Z,13.75
2019-05-16T09:53:21.421Z,13.88
2019-05-16T09:54:38.450Z,13.81
2019-05-16T09:55:21.393Z,13.75
2019-05-16T09:57:21.416Z,13.88
2019-05-16T09:59:22.316Z,13.88
2019-05-16T10:01:21.464Z,13.69
2019-05-16T10:03:22.721Z,13.69
2019-05-16T10:05:21.311Z,13.75
2019-05-16T10:07:22.424Z,13.94
2019-05-16T10:09:21.373Z,14.06
2019-05-16T10:09:44.871Z,14
2019-05-16T10:11:22.297Z,13.69
2019-05-16T10:13:21.506Z,14
2019-05-16T10:15:21.355Z,13.88
2019-05-16T10:17:21.420Z,13.75
2019-05-16T10:19:22.243Z,14.06
2019-05-16T10:21:21.415Z,14.13
2019-05-16T10:23:21.526Z,13.69
2019-05-16T10:24:38.387Z,13.69
2019-05-16T10:25:21.391Z,13.75
2019-05-16T10:27:21.495Z,13.44
2019-05-16T10:29:27.309Z,13.69
2019-05-16T10:31:21.313Z,14
2019-05-16T10:33:21.488Z,14.19
2019-05-16T10:35:21.377Z,14.19
2019-05-16T10:37:21.440Z,13.88
2019-05-16T10:39:21.419Z,13.88
2019-05-16T10:39:38.414Z,14
2019-05-16T10:41:21.378Z,13.88
2019-05-16T10:43:21.440Z,13.56
2019-05-16T10:45:21.431Z,13.75
2019-05-16T10:47:22.370Z,13.69
2019-05-16T10:49:34.176Z,13.56
2019-05-16T10:51:23.805Z,13.56
2019-05-16T10:53:42.670Z,13.88
2019-05-16T10:54:52.754Z,14
2019-05-16T10:55:22.335Z,13.88
2019-05-16T10:57:21.554Z,13.94
2019-05-16T10:59:53.969Z,14
2019-05-16T11:01:27.281Z,13.94
2019-05-16T11:03:21.523Z,14.19
2019-05-16T11:05:29.702Z,14.25
2019-05-16T11:07:21.472Z,14.31
2019-05-16T11:09:21.424Z,14.31
2019-05-16T11:09:39.356Z,14.38
2019-05-16T11:11:21.542Z,14.44
2019-05-16T11:13:21.452Z,14.56
2019-05-16T11:15:21.500Z,14.75
2019-05-16T11:17:21.449Z,14.75
2019-05-16T11:19:24.603Z,14.38
2019-05-16T11:21:21.432Z,14.63
2019-05-16T11:23:23.528Z,14.69
2019-05-16T11:24:38.451Z,15
2019-05-16T11:25:28.275Z,14.94
2019-05-16T11:27:21.441Z,15.06
2019-05-16T11:29:21.594Z,15.19
2019-05-16T11:31:21.436Z,14.63
2019-05-16T11:33:21.321Z,14.31
2019-05-16T11:35:21.501Z,14.5
2019-05-16T11:37:21.428Z,14.31
2019-05-16T11:39:21.439Z,14.31
2019-05-16T11:39:38.382Z,14.31
2019-05-16T11:41:21.388Z,14.25
2019-05-16T11:43:21.779Z,14.25
2019-05-16T11:45:21.383Z,14
2019-05-16T11:47:22.306Z,13.88
2019-05-16T11:49:21.387Z,13.94
2019-05-16T11:51:21.325Z,13.94
2019-05-16T11:53:21.405Z,14.06
2019-05-16T11:54:38.446Z,14.06
2019-05-16T11:55:21.444Z,13.94
2019-05-16T11:57:21.459Z,13.81
2019-05-16T11:59:21.390Z,13.69
2019-05-16T12:01:21.428Z,13.69
2019-05-16T12:03:21.429Z,14.13
2019-05-16T12:05:21.449Z,14.31
2019-05-16T12:07:21.378Z,14.13
2019-05-16T12:09:21.459Z,14.13
2019-05-16T12:09:46.769Z,14.19
2019-05-16T12:11:21.455Z,14.56
2019-05-16T12:13:27.382Z,14.75
2019-05-16T12:15:21.369Z,14.81
2019-05-16T12:17:22.424Z,14.56
2019-05-16T12:19:21.385Z,14.31
2019-05-16T12:21:21.425Z,14.63
2019-05-16T12:23:22.794Z,14.81
2019-05-16T12:24:41.250Z,14.63
2019-05-16T12:25:21.373Z,14.75
2019-05-16T12:27:21.467Z,14.88
2019-05-16T12:29:21.439Z,15
2019-05-16T12:31:21.379Z,14.81
2019-05-16T12:33:21.582Z,14.81
2019-05-16T12:35:21.371Z,14.56
2019-05-16T12:37:23.259Z,14.31
2019-05-16T12:39:21.489Z,14.31
2019-05-16T12:39:38.378Z,14.38
2019-05-16T12:41:21.502Z,14.31
2019-05-16T12:43:21.413Z,14.56
2019-05-16T12:45:21.436Z,14.63
2019-05-16T12:47:21.412Z,14.56
2019-05-16T12:49:21.431Z,14.63
2019-05-16T12:51:21.418Z,14.88
2019-05-16T12:53:23.398Z,15
2019-05-16T12:54:38.454Z,15.19
2019-05-16T12:55:21.371Z,15.19
2019-05-16T12:57:27.503Z,15.31
2019-05-16T12:59:21.771Z,15.19
2019-05-16T13:01:21.956Z,15.19
2019-05-16T13:03:21.404Z,14.94
2019-05-16T13:05:21.424Z,14.75
2019-05-16T13:07:21.498Z,14.63
2019-05-16T13:09:21.497Z,14.94
2019-05-16T13:09:38.428Z,14.94
2019-05-16T13:11:21.406Z,14.81
2019-05-16T13:13:21.453Z,14.63
2019-05-16T13:15:21.437Z,14.88
2019-05-16T13:17:23.212Z,14.31
2019-05-16T13:19:21.446Z,14.25
2019-05-16T13:21:22.811Z,14.88
2019-05-16T13:23:21.385Z,15
2019-05-16T13:24:38.741Z,14.88
2019-05-16T13:25:21.538Z,14.81
2019-05-16T13:27:23.156Z,15.19
2019-05-16T13:29:21.450Z,14.94
2019-05-16T13:31:21.417Z,15.25
2019-05-16T13:33:21.472Z,15.44
2019-05-16T13:35:21.438Z,15.5
2019-05-16T13:37:21.434Z,15.44
2019-05-16T13:39:21.409Z,15.44
2019-05-16T13:39:38.346Z,15.44
2019-05-16T13:41:21.515Z,15.75
2019-05-16T13:43:21.501Z,15.94
2019-05-16T13:45:21.542Z,16.25
2019-05-16T13:47:22.336Z,16.31
2019-05-16T13:49:21.519Z,16.88
2019-05-16T13:51:21.441Z,17.38
2019-05-16T13:53:22.356Z,18.06
2019-05-16T13:54:38.468Z,17.81
2019-05-16T13:55:21.432Z,17.88
2019-05-16T13:57:21.342Z,17.5
2019-05-16T13:59:21.292Z,17
2019-05-16T14:01:22.029Z,17.13
2019-05-16T14:03:21.437Z,17.69
2019-05-16T14:05:21.379Z,18.25
2019-05-16T14:07:21.426Z,17.31
2019-05-16T14:09:21.398Z,17.63
2019-05-16T14:09:38.420Z,17.75
2019-05-16T14:11:21.424Z,18.5
2019-05-16T14:13:21.393Z,18.75
2019-05-16T14:15:22.296Z,18.88
2019-05-16T14:17:21.447Z,19.13
2019-05-16T14:19:21.550Z,18.81
2019-05-16T14:21:21.431Z,18.81
2019-05-16T14:23:21.453Z,18.75
2019-05-16T14:24:38.419Z,18.5
2019-05-16T14:25:21.382Z,18.75
2019-05-16T14:27:21.453Z,18.5
2019-05-16T14:29:21.418Z,19.38
2019-05-16T14:31:21.498Z,19.06
2019-05-16T14:33:21.404Z,19.06
2019-05-16T14:35:21.544Z,18.38
2019-05-16T14:37:21.418Z,18
2019-05-16T14:39:21.436Z,18
2019-05-16T14:39:39.014Z,17.94
2019-05-16T14:41:21.353Z,18
2019-05-16T14:43:21.422Z,17.88
2019-05-16T14:45:21.418Z,18.06
2019-05-16T14:47:21.550Z,17.56
2019-05-16T14:49:21.423Z,18.13
2019-05-16T14:51:21.456Z,18.13
2019-05-16T14:53:21.437Z,18.25
2019-05-16T14:54:38.397Z,18.06
2019-05-16T14:55:21.475Z,17.88
2019-05-16T14:57:21.508Z,17.69
2019-05-16T14:59:21.384Z,17.44
2019-05-16T15:01:21.370Z,17.44
2019-05-16T15:03:21.327Z,17.44
2019-05-16T15:05:21.405Z,17.63
2019-05-16T15:07:21.425Z,17.69
2019-05-16T15:09:21.424Z,17.75
2019-05-16T15:09:39.303Z,17.94
2019-05-16T15:11:21.368Z,18
2019-05-16T15:13:21.448Z,17.88
2019-05-16T15:15:24.436Z,18.5
2019-05-16T15:17:21.408Z,18
2019-05-16T15:19:21.425Z,17.69
2019-05-16T15:21:22.339Z,17.31
2019-05-16T15:23:22.448Z,16.5
2019-05-16T15:24:38.450Z,16.31
2019-05-16T15:25:21.576Z,16.44
2019-05-16T15:27:21.498Z,16.63
2019-05-16T15:29:21.472Z,16.44
2019-05-16T15:31:26.404Z,16.31
2019-05-16T15:33:22.462Z,16.38
2019-05-16T15:35:21.719Z,16.56
2019-05-16T15:37:21.447Z,16.56
2019-05-16T15:39:21.519Z,16.5
2019-05-16T15:39:38.361Z,16.44
2019-05-16T15:41:21.422Z,16.56
2019-05-16T15:43:21.453Z,16.31
2019-05-16T15:45:34.505Z,16.06
2019-05-16T15:47:21.448Z,16.19
2019-05-16T15:49:21.451Z,16.06
2019-05-16T15:51:21.517Z,16.13
2019-05-16T15:53:21.465Z,15.94
2019-05-16T15:54:38.466Z,15.81
2019-05-16T15:55:21.529Z,15.81
2019-05-16T15:57:21.413Z,15.94
2019-05-16T15:59:21.437Z,15.63
2019-05-16T16:01:21.398Z,15.63
2019-05-16T16:03:22.537Z,15.38
2019-05-16T16:05:21.433Z,15.31
2019-05-16T16:07:21.440Z,15.38
2019-05-16T16:09:21.503Z,15.5
2019-05-16T16:09:38.448Z,15.44
2019-05-16T16:11:21.572Z,15.31
2019-05-16T16:13:21.385Z,15.31
2019-05-16T16:15:21.442Z,15.13
2019-05-16T16:17:21.436Z,15.19
2019-05-16T16:19:21.510Z,15.25
2019-05-16T16:21:21.428Z,15.63
2019-05-16T16:23:21.416Z,15.56
2019-05-16T16:24:38.446Z,15.69
2019-05-16T16:25:21.402Z,15.81
2019-05-16T16:27:21.533Z,15.75
2019-05-16T16:29:21.424Z,15.63
2019-05-16T16:31:21.417Z,15.5
2019-05-16T16:33:25.675Z,15.5
2019-05-16T16:35:22.393Z,15.75
2019-05-16T16:37:21.375Z,16.06
2019-05-16T16:39:21.423Z,16.19
2019-05-16T16:39:38.354Z,16.19
2019-05-16T16:41:22.557Z,16.19
2019-05-16T16:43:24.129Z,16.38
2019-05-16T16:45:21.463Z,16.25
2019-05-16T16:47:21.447Z,16.31
2019-05-16T16:49:21.489Z,16
2019-05-16T16:51:21.382Z,15.81
2019-05-16T16:53:21.434Z,16
2019-05-16T16:54:38.455Z,15.88
2019-05-16T16:55:21.319Z,15.69
2019-05-16T16:57:21.474Z,15.81
2019-05-16T16:59:21.425Z,15.88
2019-05-16T17:01:21.382Z,15.88
2019-05-16T17:03:21.425Z,15.63
2019-05-16T17:05:21.505Z,15.44
2019-05-16T17:07:21.430Z,15.5
2019-05-16T17:09:21.438Z,15.31
2019-05-16T17:09:38.458Z,15.38
2019-05-16T17:11:21.430Z,15.06
2019-05-16T17:13:21.618Z,14.94
2019-05-16T17:15:21.495Z,15.25
2019-05-16T17:17:21.428Z,15.44
2019-05-16T17:19:22.177Z,15.81
2019-05-16T17:21:26.613Z,16
2019-05-16T17:23:21.623Z,16.75
2019-05-16T17:24:43.667Z,16.75
2019-05-16T17:25:36.612Z,16.69
2019-05-16T17:27:21.648Z,16.75
2019-05-16T17:29:21.616Z,17
2019-05-16T17:31:21.786Z,16.81
2019-05-16T17:33:21.924Z,17.06
2019-05-16T17:35:21.370Z,16.31
2019-05-16T17:37:22.654Z,16.19
2019-05-16T17:39:21.425Z,15.63
2019-05-16T17:39:38.377Z,15.63
2019-05-16T17:41:21.433Z,15.63
2019-05-16T17:43:21.440Z,15.31
2019-05-16T17:45:21.297Z,15
2019-05-16T17:47:21.454Z,14.81
2019-05-16T17:49:21.509Z,14.69
2019-05-16T17:51:21.567Z,14.94
2019-05-16T17:53:21.457Z,14.94
2019-05-16T17:54:38.462Z,14.94
2019-05-16T17:55:21.455Z,15.13
2019-05-16T17:57:21.363Z,14.81
2019-05-16T17:59:21.568Z,14.88
2019-05-16T18:01:21.460Z,14.94
2019-05-16T18:03:21.422Z,14.88
2019-05-16T18:05:21.368Z,14.75
2019-05-16T18:07:21.438Z,14.69
2019-05-16T18:09:21.372Z,14.69
2019-05-16T18:09:38.443Z,14.69
2019-05-16T18:11:21.402Z,14.69
2019-05-16T18:13:21.416Z,14.56
2019-05-16T18:15:21.434Z,14.63
2019-05-16T18:17:21.386Z,14.44
2019-05-16T18:19:21.508Z,14.31
2019-05-16T18:21:21.429Z,14.31
2019-05-16T18:23:21.412Z,14.31
2019-05-16T18:24:38.564Z,14.25
2019-05-16T18:25:21.427Z,14.25
2019-05-16T18:27:21.500Z,14.25
2019-05-16T18:29:21.397Z,14.13
2019-05-16T18:31:21.430Z,14
2019-05-16T18:33:22.308Z,14.06
2019-05-16T18:35:21.434Z,14.06
2019-05-16T18:37:21.543Z,13.94
2019-05-16T18:39:21.387Z,14
2019-05-16T18:39:38.420Z,14
2019-05-16T18:41:21.417Z,13.88
2019-05-16T18:43:21.589Z,13.81
2019-05-16T18:45:21.400Z,13.75
2019-05-16T18:47:21.440Z,13.69
2019-05-16T18:49:23.942Z,13.63
2019-05-16T18:51:21.499Z,13.69
2019-05-16T18:53:21.400Z,13.56
2019-05-16T18:54:38.477Z,13.5
2019-05-16T18:55:21.439Z,13.5
2019-05-16T18:57:22.315Z,13.44
2019-05-16T18:59:21.426Z,13.44
2019-05-16T19:01:21.434Z,13.38
2019-05-16T19:03:21.408Z,13.31
2019-05-16T19:05:21.445Z,13.25
2019-05-16T19:07:21.371Z,13.13
2019-05-16T19:09:21.501Z,13.13
2019-05-16T19:09:38.529Z,13.13
2019-05-16T19:11:21.479Z,13.06
2019-05-16T19:13:21.509Z,13.06
2019-05-16T19:15:21.391Z,13
2019-05-16T19:17:24.555Z,13
2019-05-16T19:19:21.370Z,13.06
2019-05-16T19:21:21.632Z,12.94
2019-05-16T19:23:21.458Z,12.94
2019-05-16T19:24:38.387Z,13
2019-05-16T19:25:21.467Z,12.94
2019-05-16T19:27:21.484Z,12.94
2019-05-16T19:29:22.313Z,12.81
2019-05-16T19:31:21.471Z,12.88
2019-05-16T19:33:21.384Z,12.94
2019-05-16T19:35:21.520Z,12.88
2019-05-16T19:37:21.433Z,12.94
2019-05-16T19:39:21.378Z,12.88
2019-05-16T19:39:38.384Z,12.88
2019-05-16T19:41:21.423Z,12.88
2019-05-16T19:43:21.627Z,12.88
2019-05-16T19:45:21.497Z,12.88
2019-05-16T19:47:34.020Z,12.88
2019-05-16T19:49:21.419Z,12.88
2019-05-16T19:51:21.421Z,12.88
2019-05-16T19:53:22.300Z,12.88
2019-05-16T19:54:38.419Z,12.88
2019-05-16T19:55:21.424Z,12.88
2019-05-16T19:57:21.406Z,12.81
2019-05-16T19:59:21.428Z,12.75
2019-05-16T20:01:21.502Z,12.81
2019-05-16T20:03:21.545Z,12.75
2019-05-16T20:05:21.489Z,12.81
2019-05-16T20:07:21.307Z,12.75
2019-05-16T20:09:21.369Z,12.81
2019-05-16T20:09:38.437Z,12.81
2019-05-16T20:11:21.475Z,12.75
2019-05-16T20:13:21.442Z,12.81
2019-05-16T20:15:21.371Z,12.69
2019-05-16T20:17:21.420Z,12.69
2019-05-16T20:19:21.466Z,12.63
2019-05-16T20:21:21.480Z,12.63
2019-05-16T20:23:21.507Z,12.56
2019-05-16T20:24:38.370Z,12.56
2019-05-16T20:25:21.414Z,12.63
2019-05-16T20:27:21.478Z,12.56
2019-05-16T20:29:21.514Z,12.44
2019-05-16T20:31:21.427Z,12.5
2019-05-16T20:33:21.567Z,12.44
2019-05-16T20:35:21.535Z,12.25
2019-05-16T20:37:21.384Z,12.38
2019-05-16T20:39:21.422Z,12.38
2019-05-16T20:39:38.448Z,12.38
2019-05-16T20:41:21.433Z,12.31
2019-05-16T20:43:21.426Z,12.25
2019-05-16T20:45:21.420Z,12.19
2019-05-16T20:47:21.441Z,12
2019-05-16T20:49:21.439Z,12
2019-05-16T20:51:21.479Z,11.94
2019-05-16T20:53:21.514Z,11.94
2019-05-16T20:54:38.463Z,11.94
2019-05-16T20:55:21.530Z,11.94
2019-05-16T20:57:21.542Z,11.88
2019-05-16T20:59:21.435Z,11.81
2019-05-16T21:01:21.432Z,11.88
2019-05-16T21:03:21.602Z,11.81
2019-05-16T21:05:21.560Z,11.81
2019-05-16T21:07:21.565Z,11.81
2019-05-16T21:09:23.169Z,11.81
2019-05-16T21:09:38.431Z,11.81
2019-05-16T21:11:21.446Z,11.88
2019-05-16T21:13:21.680Z,11.81
2019-05-16T21:15:21.454Z,11.81
2019-05-16T21:17:22.416Z,11.75
2019-05-16T21:19:21.387Z,11.63
2019-05-16T21:21:21.460Z,11.56
2019-05-16T21:23:21.535Z,11.56
2019-05-16T21:24:38.423Z,11.5
2019-05-16T21:25:21.419Z,11.56
2019-05-16T21:27:22.320Z,11.5
2019-05-16T21:29:21.434Z,11.56
2019-05-16T21:31:21.456Z,11.44
2019-05-16T21:33:21.376Z,11.38
2019-05-16T21:35:21.418Z,11.38
2019-05-16T21:37:21.403Z,11.38
2019-05-16T21:39:21.385Z,11.38
2019-05-16T21:39:38.425Z,11.38
2019-05-16T21:41:21.380Z,11.38
2019-05-16T21:43:21.415Z,11.25
2019-05-16T21:45:21.461Z,11.25
2019-05-16T21:47:21.762Z,11.06
2019-05-16T21:49:21.382Z,11
2019-05-16T21:51:21.446Z,10.94
2019-05-16T21:53:21.567Z,10.81
2019-05-16T21:54:38.409Z,10.75
2019-05-16T21:55:21.377Z,10.75
2019-05-16T21:57:21.525Z,10.69
2019-05-16T21:59:21.425Z,10.56
2019-05-16T22:01:21.422Z,10.56
2019-05-16T22:03:21.395Z,10.63
2019-05-16T22:05:21.412Z,10.5
2019-05-16T22:07:32.776Z,10.44
2019-05-16T22:09:22.302Z,10.5
2019-05-16T22:09:38.454Z,10.5
2019-05-16T22:11:21.371Z,10.56
2019-05-16T22:13:21.422Z,10.56
2019-05-16T22:15:21.424Z,10.56
2019-05-16T22:17:21.416Z,10.56
2019-05-16T22:19:21.421Z,10.63
2019-05-16T22:21:21.445Z,10.63
2019-05-16T22:23:21.334Z,10.56
2019-05-16T22:24:38.388Z,10.56
2019-05-16T22:25:21.414Z,10.63
2019-05-16T22:27:21.409Z,10.56
2019-05-16T22:29:21.300Z,10.44
2019-05-16T22:31:21.474Z,10.38
2019-05-16T22:33:21.430Z,10.38
2019-05-16T22:35:21.485Z,10.31
2019-05-16T22:37:21.508Z,10.31
2019-05-16T22:39:21.460Z,10.38
2019-05-16T22:39:38.445Z,10.44
2019-05-16T22:41:23.116Z,10.31
2019-05-16T22:43:21.415Z,10.25
2019-05-16T22:45:21.489Z,10.19
2019-05-16T22:47:21.429Z,10.19
2019-05-16T22:49:21.380Z,10.06
2019-05-16T22:51:21.524Z,10.06
2019-05-16T22:53:21.397Z,10
2019-05-16T22:54:38.410Z,10
2019-05-16T22:55:21.414Z,10.06
2019-05-16T22:57:21.401Z,10.06
2019-05-16T22:59:21.427Z,10
2019-05-16T23:01:21.495Z,10.06
2019-05-16T23:03:21.441Z,10
2019-05-16T23:05:21.426Z,10
2019-05-16T23:07:21.429Z,10
2019-05-16T23:09:21.432Z,10
2019-05-16T23:09:38.394Z,10